sensor_id;sensor_type;location;lat;lon;timestamp;pressure;altitude;pressure_sealevel;temperature;humidity
74627;BME280;63132;52.268;5.192;2023-05-10T00:02:18;100762.72;;;11.02;100.00
74627;BME280;63132;52.268;5.192;2023-05-10T00:04:43;100769.41;;;10.96;100.00
74627;BME280;63132;52.268;5.192;2023-05-10T00:07:08;100769.09;;;10.89;100.00
74627;BME280;63132;52.268;5.192;2023-05-10T00:09:35;100759.31;;;10.79;100.00
74627;BME280;63132;52.268;5.192;2023-05-10T00:12:00;100766.09;;;10.71;100.00
74627;BME280;63132;52.268;5.192;2023-05-10T00:14:25;100765.63;;;10.66;100.00
74627;BME280;63132;52.268;5.192;2023-05-10T00:16:50;100759.09;;;10.70;100.00
74627;BME280;63132;52.268;5.192;2023-05-10T00:19:16;100759.22;;;10.69;100.00
74627;BME280;63132;52.268;5.192;2023-05-10T00:21:41;100750.88;;;10.62;100.00
74627;BME280;63132;52.268;5.192;2023-05-10T00:24:06;100760.31;;;10.54;100.00
74627;BME280;63132;52.268;5.192;2023-05-10T00:26:32;100757.91;;;10.51;100.00
74627;BME280;63132;52.268;5.192;2023-05-10T00:28:57;100756.69;;;10.44;100.00
74627;BME280;63132;52.268;5.192;2023-05-10T00:31:23;100761.50;;;10.39;100.00
74627;BME280;63132;52.268;5.192;2023-05-10T00:33:48;100761.41;;;10.40;100.00
74627;BME280;63132;52.268;5.192;2023-05-10T00:36:13;100760.31;;;10.32;100.00
74627;BME280;63132;52.268;5.192;2023-05-10T00:38:39;100758.88;;;10.50;100.00
74627;BME280;63132;52.268;5.192;2023-05-10T00:41:04;100759.34;;;10.44;100.00
74627;BME280;63132;52.268;5.192;2023-05-10T00:43:29;100763.84;;;10.55;100.00
74627;BME280;63132;52.268;5.192;2023-05-10T00:45:54;100766.09;;;10.60;100.00
74627;BME280;63132;52.268;5.192;2023-05-10T00:48:20;100765.41;;;10.58;100.00
74627;BME280;63132;52.268;5.192;2023-05-10T00:50:46;100762.63;;;10.59;100.00
74627;BME280;63132;52.268;5.192;2023-05-10T00:53:11;100759.25;;;10.57;100.00
74627;BME280;63132;52.268;5.192;2023-05-10T00:55:37;100765.75;;;10.64;100.00
74627;BME280;63132;52.268;5.192;2023-05-10T00:58:02;100766.44;;;10.78;100.00
74627;BME280;63132;52.268;5.192;2023-05-10T01:00:27;100770.16;;;10.87;100.00
74627;BME280;63132;52.268;5.192;2023-05-10T01:02:54;100766.13;;;11.04;100.00
74627;BME280;63132;52.268;5.192;2023-05-10T01:05:19;100769.03;;;11.34;100.00
74627;BME280;63132;52.268;5.192;2023-05-10T01:07:45;100770.25;;;11.30;100.00
74627;BME280;63132;52.268;5.192;2023-05-10T01:10:10;100766.41;;;11.44;100.00
74627;BME280;63132;52.268;5.192;2023-05-10T01:12:37;100774.81;;;11.39;100.00
74627;BME280;63132;52.268;5.192;2023-05-10T01:15:03;100768.97;;;11.45;100.00
74627;BME280;63132;52.268;5.192;2023-05-10T01:17:29;100767.72;;;11.49;100.00
74627;BME280;63132;52.268;5.192;2023-05-10T01:19:55;100767.13;;;11.67;100.00
74627;BME280;63132;52.268;5.192;2023-05-10T01:22:34;100769.59;;;11.59;100.00
74627;BME280;63132;52.268;5.192;2023-05-10T01:30:29;100770.25;;;11.72;99.33
74627;BME280;63132;52.268;5.192;2023-05-10T01:35:41;100766.34;;;11.77;99.17
74627;BME280;63132;52.268;5.192;2023-05-10T01:38:18;100760.78;;;11.80;98.96
74627;BME280;63132;52.268;5.192;2023-05-10T01:43:37;100762.25;;;11.72;98.44
74627;BME280;63132;52.268;5.192;2023-05-10T01:46:12;100766.63;;;11.74;98.09
74627;BME280;63132;52.268;5.192;2023-05-10T01:48:43;100770.50;;;11.69;98.06
74627;BME280;63132;52.268;5.192;2023-05-10T01:51:12;100770.22;;;11.63;97.85
74627;BME280;63132;52.268;5.192;2023-05-10T01:53:39;100763.97;;;11.52;98.14
74627;BME280;63132;52.268;5.192;2023-05-10T01:56:05;100770.84;;;11.55;98.04
74627;BME280;63132;52.268;5.192;2023-05-10T01:58:32;100768.44;;;11.73;98.04
74627;BME280;63132;52.268;5.192;2023-05-10T02:01:00;100773.44;;;11.66;97.90
74627;BME280;63132;52.268;5.192;2023-05-10T02:03:26;100781.44;;;11.66;97.62
74627;BME280;63132;52.268;5.192;2023-05-10T02:05:52;100778.25;;;11.72;96.91
74627;BME280;63132;52.268;5.192;2023-05-10T02:08:18;100785.78;;;11.67;97.20
74627;BME280;63132;52.268;5.192;2023-05-10T02:10:44;100784.03;;;11.78;97.44
74627;BME280;63132;52.268;5.192;2023-05-10T02:13:10;100777.53;;;11.70;97.38
74627;BME280;63132;52.268;5.192;2023-05-10T02:15:36;100779.44;;;11.80;97.24
74627;BME280;63132;52.268;5.192;2023-05-10T02:18:02;100781.44;;;11.66;97.25
74627;BME280;63132;52.268;5.192;2023-05-10T02:20:28;100776.13;;;11.66;97.11
74627;BME280;63132;52.268;5.192;2023-05-10T02:22:56;100788.06;;;11.51;97.25
74627;BME280;63132;52.268;5.192;2023-05-10T02:25:23;100782.69;;;11.62;97.64
74627;BME280;63132;52.268;5.192;2023-05-10T02:27:48;100787.78;;;11.54;97.69
74627;BME280;63132;52.268;5.192;2023-05-10T02:30:14;100787.59;;;11.67;97.22
74627;BME280;63132;52.268;5.192;2023-05-10T02:32:39;100791.75;;;11.81;96.99
74627;BME280;63132;52.268;5.192;2023-05-10T02:35:05;100796.50;;;11.77;96.52
74627;BME280;63132;52.268;5.192;2023-05-10T02:37:32;100799.19;;;11.77;96.44
74627;BME280;63132;52.268;5.192;2023-05-10T02:39:58;100799.97;;;11.68;96.85
74627;BME280;63132;52.268;5.192;2023-05-10T02:42:27;100799.69;;;11.71;96.52
74627;BME280;63132;52.268;5.192;2023-05-10T02:44:56;100800.28;;;11.75;96.45
74627;BME280;63132;52.268;5.192;2023-05-10T02:47:21;100803.28;;;11.60;96.83
74627;BME280;63132;52.268;5.192;2023-05-10T02:49:47;100803.00;;;11.63;97.10
74627;BME280;63132;52.268;5.192;2023-05-10T02:52:12;100800.75;;;11.58;96.95
74627;BME280;63132;52.268;5.192;2023-05-10T02:54:44;100807.38;;;11.64;97.05
74627;BME280;63132;52.268;5.192;2023-05-10T02:57:11;100799.91;;;11.58;96.88
74627;BME280;63132;52.268;5.192;2023-05-10T02:59:39;100803.22;;;11.71;96.59
74627;BME280;63132;52.268;5.192;2023-05-10T03:02:05;100811.28;;;11.60;96.56
74627;BME280;63132;52.268;5.192;2023-05-10T03:04:30;100809.56;;;11.59;96.74
74627;BME280;63132;52.268;5.192;2023-05-10T03:06:55;100806.06;;;11.58;96.82
74627;BME280;63132;52.268;5.192;2023-05-10T03:09:20;100807.56;;;11.72;96.76
74627;BME280;63132;52.268;5.192;2023-05-10T03:12:05;100800.59;;;11.60;96.28
74627;BME280;63132;52.268;5.192;2023-05-10T03:22:17;100807.94;;;11.46;96.73
74627;BME280;63132;52.268;5.192;2023-05-10T03:24:46;100806.13;;;11.47;96.83
74627;BME280;63132;52.268;5.192;2023-05-10T03:27:14;100806.00;;;11.48;97.33
74627;BME280;63132;52.268;5.192;2023-05-10T03:29:39;100807.38;;;11.64;96.95
74627;BME280;63132;52.268;5.192;2023-05-10T03:32:04;100808.19;;;11.65;96.77
74627;BME280;63132;52.268;5.192;2023-05-10T03:34:30;100812.03;;;11.51;96.41
74627;BME280;63132;52.268;5.192;2023-05-10T03:36:55;100808.03;;;11.56;96.54
74627;BME280;63132;52.268;5.192;2023-05-10T03:39:20;100816.72;;;11.58;96.22
74627;BME280;63132;52.268;5.192;2023-05-10T03:41:46;100813.72;;;11.52;96.37
74627;BME280;63132;52.268;5.192;2023-05-10T03:44:11;100812.75;;;11.53;96.77
74627;BME280;63132;52.268;5.192;2023-05-10T03:46:36;100820.22;;;11.59;96.90
74627;BME280;63132;52.268;5.192;2023-05-10T03:49:02;100817.81;;;11.56;96.24
74627;BME280;63132;52.268;5.192;2023-05-10T03:51:27;100821.66;;;11.63;96.22
74627;BME280;63132;52.268;5.192;2023-05-10T03:53:53;100819.97;;;11.62;96.10
74627;BME280;63132;52.268;5.192;2023-05-10T03:56:18;100822.06;;;11.58;96.14
74627;BME280;63132;52.268;5.192;2023-05-10T03:58:44;100819.31;;;11.48;96.18
74627;BME280;63132;52.268;5.192;2023-05-10T04:01:09;100822.66;;;11.62;96.46
74627;BME280;63132;52.268;5.192;2023-05-10T04:03:35;100827.91;;;11.52;96.17
74627;BME280;63132;52.268;5.192;2023-05-10T04:06:01;100835.84;;;11.64;96.50
74627;BME280;63132;52.268;5.192;2023-05-10T04:08:26;100835.63;;;11.55;96.49
74627;BME280;63132;52.268;5.192;2023-05-10T04:10:52;100829.47;;;11.55;96.45
74627;BME280;63132;52.268;5.192;2023-05-10T04:13:17;100825.59;;;11.47;96.50
74627;BME280;63132;52.268;5.192;2023-05-10T04:15:42;100829.75;;;11.40;96.38
74627;BME280;63132;52.268;5.192;2023-05-10T04:18:08;100819.31;;;11.48;96.65
74627;BME280;63132;52.268;5.192;2023-05-10T04:20:33;100835.34;;;11.37;96.65
74627;BME280;63132;52.268;5.192;2023-05-10T04:22:59;100826.63;;;11.35;96.82
74627;BME280;63132;52.268;5.192;2023-05-10T04:25:24;100837.63;;;11.42;97.19
74627;BME280;63132;52.268;5.192;2023-05-10T04:27:49;100838.47;;;11.42;96.88
74627;BME280;63132;52.268;5.192;2023-05-10T04:30:14;100837.84;;;11.50;96.70
74627;BME280;63132;52.268;5.192;2023-05-10T04:32:40;100841.00;;;11.44;96.36
74627;BME280;63132;52.268;5.192;2023-05-10T04:35:05;100839.06;;;11.46;96.35
74627;BME280;63132;52.268;5.192;2023-05-10T04:37:30;100843.34;;;11.37;96.79
74627;BME280;63132;52.268;5.192;2023-05-10T04:39:56;100836.69;;;11.31;96.98
74627;BME280;63132;52.268;5.192;2023-05-10T04:42:21;100843.03;;;11.52;96.86
74627;BME280;63132;52.268;5.192;2023-05-10T04:44:46;100840.84;;;11.57;96.15
74627;BME280;63132;52.268;5.192;2023-05-10T04:47:11;100832.38;;;11.52;96.11
74627;BME280;63132;52.268;5.192;2023-05-10T04:49:38;100842.53;;;11.58;95.82
74627;BME280;63132;52.268;5.192;2023-05-10T04:52:03;100843.81;;;11.64;95.82
74627;BME280;63132;52.268;5.192;2023-05-10T04:54:28;100846.91;;;11.47;95.77
74627;BME280;63132;52.268;5.192;2023-05-10T04:56:53;100843.03;;;11.52;95.48
74627;BME280;63132;52.268;5.192;2023-05-10T04:59:18;100847.00;;;11.57;95.51
74627;BME280;63132;52.268;5.192;2023-05-10T05:01:44;100855.38;;;11.53;95.50
74627;BME280;63132;52.268;5.192;2023-05-10T05:04:09;100860.53;;;11.33;95.79
74627;BME280;63132;52.268;5.192;2023-05-10T05:06:34;100856.63;;;11.48;96.22
74627;BME280;63132;52.268;5.192;2023-05-10T05:09:00;100867.13;;;11.50;95.60
74627;BME280;63132;52.268;5.192;2023-05-10T05:11:25;100862.31;;;11.44;95.61
74627;BME280;63132;52.268;5.192;2023-05-10T05:13:50;100865.72;;;11.34;95.62
74627;BME280;63132;52.268;5.192;2023-05-10T05:16:16;100866.34;;;11.27;95.33
74627;BME280;63132;52.268;5.192;2023-05-10T05:18:41;100871.59;;;11.49;95.05
74627;BME280;63132;52.268;5.192;2023-05-10T05:21:13;100866.97;;;11.63;94.76
74627;BME280;63132;52.268;5.192;2023-05-10T05:23:39;100873.66;;;11.79;93.86
74627;BME280;63132;52.268;5.192;2023-05-10T05:26:04;100877.56;;;11.75;93.00
74627;BME280;63132;52.268;5.192;2023-05-10T05:28:29;100886.47;;;11.64;92.72
74627;BME280;63132;52.268;5.192;2023-05-10T05:30:57;100880.22;;;11.75;92.63
74627;BME280;63132;52.268;5.192;2023-05-10T05:33:23;100896.94;;;11.77;92.22
74627;BME280;63132;52.268;5.192;2023-05-10T05:35:48;100893.59;;;11.63;92.36
74627;BME280;63132;52.268;5.192;2023-05-10T05:38:15;100894.31;;;11.65;92.14
74627;BME280;63132;52.268;5.192;2023-05-10T05:40:41;100904.25;;;11.63;92.25
74627;BME280;63132;52.268;5.192;2023-05-10T05:43:06;100896.81;;;11.57;92.66
74627;BME280;63132;52.268;5.192;2023-05-10T05:45:31;100902.84;;;11.47;92.76
74627;BME280;63132;52.268;5.192;2023-05-10T05:47:56;100904.22;;;11.75;93.07
74627;BME280;63132;52.268;5.192;2023-05-10T05:50:22;100898.44;;;11.69;92.59
74627;BME280;63132;52.268;5.192;2023-05-10T05:52:47;100911.97;;;11.78;91.83
74627;BME280;63132;52.268;5.192;2023-05-10T05:55:12;100907.53;;;11.88;91.06
74627;BME280;63132;52.268;5.192;2023-05-10T05:57:37;100909.25;;;11.89;91.03
74627;BME280;63132;52.268;5.192;2023-05-10T06:00:03;100912.38;;;11.94;90.91
74627;BME280;63132;52.268;5.192;2023-05-10T06:02:29;100913.31;;;11.93;90.91
74627;BME280;63132;52.268;5.192;2023-05-10T06:04:54;100916.75;;;11.84;90.64
74627;BME280;63132;52.268;5.192;2023-05-10T06:07:19;100911.78;;;11.91;91.06
74627;BME280;63132;52.268;5.192;2023-05-10T06:09:45;100917.19;;;12.01;91.35
74627;BME280;63132;52.268;5.192;2023-05-10T06:12:10;100917.50;;;12.07;90.77
74627;BME280;63132;52.268;5.192;2023-05-10T06:14:36;100915.44;;;12.11;90.32
74627;BME280;63132;52.268;5.192;2023-05-10T06:17:01;100918.13;;;12.11;89.79
74627;BME280;63132;52.268;5.192;2023-05-10T06:19:28;100922.22;;;12.15;89.49
74627;BME280;63132;52.268;5.192;2023-05-10T06:21:54;100922.94;;;12.17;89.89
74627;BME280;63132;52.268;5.192;2023-05-10T06:24:19;100929.94;;;12.18;89.93
74627;BME280;63132;52.268;5.192;2023-05-10T06:26:44;100922.44;;;12.24;89.06
74627;BME280;63132;52.268;5.192;2023-05-10T06:29:10;100923.47;;;12.11;89.37
74627;BME280;63132;52.268;5.192;2023-05-10T06:31:35;100927.28;;;12.18;89.02
74627;BME280;63132;52.268;5.192;2023-05-10T06:34:00;100925.06;;;12.02;88.56
74627;BME280;63132;52.268;5.192;2023-05-10T06:36:25;100929.13;;;12.18;88.87
74627;BME280;63132;52.268;5.192;2023-05-10T06:38:52;100932.09;;;12.25;88.99
74627;BME280;63132;52.268;5.192;2023-05-10T06:41:17;100941.84;;;12.14;89.44
74627;BME280;63132;52.268;5.192;2023-05-10T06:43:42;100934.13;;;12.33;88.68
74627;BME280;63132;52.268;5.192;2023-05-10T06:46:08;100927.63;;;12.47;88.86
74627;BME280;63132;52.268;5.192;2023-05-10T06:48:33;100931.50;;;12.64;88.00
74627;BME280;63132;52.268;5.192;2023-05-10T06:50:59;100926.53;;;12.59;87.80
74627;BME280;63132;52.268;5.192;2023-05-10T06:53:24;100929.00;;;12.51;87.47
74627;BME280;63132;52.268;5.192;2023-05-10T06:55:49;100927.91;;;12.53;87.44
74627;BME280;63132;52.268;5.192;2023-05-10T06:58:14;100932.97;;;12.88;86.66
74627;BME280;63132;52.268;5.192;2023-05-10T07:00:40;100934.13;;;12.95;85.42
74627;BME280;63132;52.268;5.192;2023-05-10T07:03:07;100935.69;;;12.66;84.82
74627;BME280;63132;52.268;5.192;2023-05-10T07:05:32;100940.50;;;12.73;85.74
74627;BME280;63132;52.268;5.192;2023-05-10T07:07:58;100947.00;;;12.80;85.62
74627;BME280;63132;52.268;5.192;2023-05-10T07:10:23;100944.34;;;12.80;85.89
74627;BME280;63132;52.268;5.192;2023-05-10T07:12:48;100951.84;;;12.65;85.82
74627;BME280;63132;52.268;5.192;2023-05-10T07:15:14;100944.22;;;12.60;86.88
74627;BME280;63132;52.268;5.192;2023-05-10T07:17:40;100947.19;;;12.88;86.26
74627;BME280;63132;52.268;5.192;2023-05-10T07:20:06;100948.44;;;12.84;86.50
74627;BME280;63132;52.268;5.192;2023-05-10T07:22:31;100950.41;;;12.61;86.33
74627;BME280;63132;52.268;5.192;2023-05-10T07:24:57;100959.63;;;12.47;85.64
74627;BME280;63132;52.268;5.192;2023-05-10T07:27:22;100965.22;;;12.43;85.78
74627;BME280;63132;52.268;5.192;2023-05-10T07:29:47;100957.84;;;12.36;85.99
74627;BME280;63132;52.268;5.192;2023-05-10T07:32:12;100973.19;;;12.01;87.04
74627;BME280;63132;52.268;5.192;2023-05-10T07:34:38;100976.47;;;11.93;88.27
74627;BME280;63132;52.268;5.192;2023-05-10T07:37:03;100980.06;;;11.70;88.76
74627;BME280;63132;52.268;5.192;2023-05-10T07:39:28;100975.34;;;11.74;88.96
74627;BME280;63132;52.268;5.192;2023-05-10T07:41:54;100978.75;;;11.98;87.61
74627;BME280;63132;52.268;5.192;2023-05-10T07:44:19;100977.31;;;11.93;87.92
74627;BME280;63132;52.268;5.192;2023-05-10T07:46:45;100977.81;;;12.20;86.84
74627;BME280;63132;52.268;5.192;2023-05-10T07:49:11;100981.56;;;12.50;86.08
74627;BME280;63132;52.268;5.192;2023-05-10T07:51:36;100978.47;;;13.08;85.67
74627;BME280;63132;52.268;5.192;2023-05-10T07:54:01;100977.72;;;13.47;83.36
74627;BME280;63132;52.268;5.192;2023-05-10T07:56:28;100973.72;;;13.72;80.83
74627;BME280;63132;52.268;5.192;2023-05-10T07:58:56;100982.88;;;13.90;80.43
74627;BME280;63132;52.268;5.192;2023-05-10T08:01:22;100975.25;;;14.05;79.95
74627;BME280;63132;52.268;5.192;2023-05-10T08:03:47;100977.94;;;14.05;79.28
74627;BME280;63132;52.268;5.192;2023-05-10T08:06:13;100983.13;;;14.06;78.50
74627;BME280;63132;52.268;5.192;2023-05-10T08:08:39;100992.84;;;14.07;78.47
74627;BME280;63132;52.268;5.192;2023-05-10T08:11:04;100996.31;;;14.38;78.27
74627;BME280;63132;52.268;5.192;2023-05-10T08:13:29;100997.88;;;14.50;77.29
74627;BME280;63132;52.268;5.192;2023-05-10T08:15:56;101000.09;;;14.55;78.09
74627;BME280;63132;52.268;5.192;2023-05-10T08:18:21;101002.34;;;14.60;75.90
74627;BME280;63132;52.268;5.192;2023-05-10T08:20:46;101010.09;;;14.63;75.74
74627;BME280;63132;52.268;5.192;2023-05-10T08:23:12;101011.78;;;14.64;77.07
74627;BME280;63132;52.268;5.192;2023-05-10T08:25:38;101013.91;;;14.60;74.85
74627;BME280;63132;52.268;5.192;2023-05-10T08:28:03;101024.63;;;14.50;75.98
74627;BME280;63132;52.268;5.192;2023-05-10T08:30:28;101020.22;;;14.69;74.95
74627;BME280;63132;52.268;5.192;2023-05-10T08:32:53;101021.63;;;14.73;76.03
74627;BME280;63132;52.268;5.192;2023-05-10T08:35:19;101026.13;;;14.93;75.79
74627;BME280;63132;52.268;5.192;2023-05-10T08:37:44;101025.97;;;14.74;74.94
74627;BME280;63132;52.268;5.192;2023-05-10T08:40:10;101011.69;;;15.03;74.43
74627;BME280;63132;52.268;5.192;2023-05-10T08:42:36;101023.84;;;15.26;72.75
74627;BME280;63132;52.268;5.192;2023-05-10T08:45:05;101019.91;;;15.48;73.16
74627;BME280;63132;52.268;5.192;2023-05-10T08:47:32;101027.84;;;15.68;72.49
74627;BME280;63132;52.268;5.192;2023-05-10T08:49:57;101029.63;;;15.78;72.48
74627;BME280;63132;52.268;5.192;2023-05-10T08:52:24;101033.31;;;15.77;71.63
74627;BME280;63132;52.268;5.192;2023-05-10T08:54:51;101032.25;;;15.69;73.13
74627;BME280;63132;52.268;5.192;2023-05-10T08:57:16;101035.13;;;15.58;72.82
74627;BME280;63132;52.268;5.192;2023-05-10T08:59:42;101032.03;;;16.36;73.26
74627;BME280;63132;52.268;5.192;2023-05-10T09:02:07;101039.25;;;16.62;69.89
74627;BME280;63132;52.268;5.192;2023-05-10T09:04:34;101031.56;;;16.93;69.11
74627;BME280;63132;52.268;5.192;2023-05-10T09:06:59;101041.25;;;17.13;68.35
74627;BME280;63132;52.268;5.192;2023-05-10T09:09:26;101037.31;;;17.34;66.02
74627;BME280;63132;52.268;5.192;2023-05-10T09:11:52;101034.03;;;17.13;67.79
74627;BME280;63132;52.268;5.192;2023-05-10T09:14:18;101037.00;;;17.37;66.11
74627;BME280;63132;52.268;5.192;2023-05-10T09:16:43;101030.91;;;17.95;66.36
74627;BME280;63132;52.268;5.192;2023-05-10T09:19:09;101032.09;;;17.92;63.35
74627;BME280;63132;52.268;5.192;2023-05-10T09:21:37;101033.28;;;18.15;66.56
74627;BME280;63132;52.268;5.192;2023-05-10T09:24:06;101043.34;;;17.79;65.36
74627;BME280;63132;52.268;5.192;2023-05-10T09:26:32;101052.09;;;17.81;64.55
74627;BME280;63132;52.268;5.192;2023-05-10T09:28:58;101047.41;;;18.08;63.83
74627;BME280;63132;52.268;5.192;2023-05-10T09:31:24;101051.22;;;17.21;66.82
74627;BME280;63132;52.268;5.192;2023-05-10T09:34:07;101068.28;;;16.85;68.50
74627;BME280;63132;52.268;5.192;2023-05-10T09:36:32;101057.34;;;17.04;67.37
74627;BME280;63132;52.268;5.192;2023-05-10T09:38:58;101064.72;;;17.02;68.74
74627;BME280;63132;52.268;5.192;2023-05-10T09:41:23;101062.22;;;17.09;66.32
74627;BME280;63132;52.268;5.192;2023-05-10T09:43:49;101064.50;;;17.66;67.24
74627;BME280;63132;52.268;5.192;2023-05-10T09:46:14;101058.81;;;17.85;65.28
74627;BME280;63132;52.268;5.192;2023-05-10T09:48:44;101065.47;;;18.33;62.69
74627;BME280;63132;52.268;5.192;2023-05-10T09:51:10;101061.16;;;19.14;61.63
74627;BME280;63132;52.268;5.192;2023-05-10T09:53:35;101069.34;;;18.55;59.93
74627;BME280;63132;52.268;5.192;2023-05-10T09:56:01;101069.00;;;18.33;61.97
74627;BME280;63132;52.268;5.192;2023-05-10T09:58:26;101072.34;;;18.27;64.17
74627;BME280;63132;52.268;5.192;2023-05-10T10:00:51;101070.59;;;17.84;64.05
74627;BME280;63132;52.268;5.192;2023-05-10T10:03:18;101068.78;;;17.42;63.88
74627;BME280;63132;52.268;5.192;2023-05-10T10:05:44;101075.97;;;17.06;66.29
74627;BME280;63132;52.268;5.192;2023-05-10T10:08:10;101086.94;;;17.13;66.77
74627;BME280;63132;52.268;5.192;2023-05-10T10:10:35;101076.78;;;16.72;66.58
74627;BME280;63132;52.268;5.192;2023-05-10T10:13:01;101087.25;;;16.83;67.36
74627;BME280;63132;52.268;5.192;2023-05-10T10:15:26;101085.56;;;16.82;68.19
74627;BME280;63132;52.268;5.192;2023-05-10T10:17:52;101083.25;;;16.61;69.35
74627;BME280;63132;52.268;5.192;2023-05-10T10:20:18;101088.78;;;16.86;69.75
74627;BME280;63132;52.268;5.192;2023-05-10T10:22:43;101089.41;;;17.06;67.86
74627;BME280;63132;52.268;5.192;2023-05-10T10:25:10;101092.56;;;17.20;66.48
74627;BME280;63132;52.268;5.192;2023-05-10T10:35:28;101097.06;;;16.92;65.10
74627;BME280;63132;52.268;5.192;2023-05-10T10:37:54;101099.66;;;17.11;64.37
74627;BME280;63132;52.268;5.192;2023-05-10T10:40:37;101089.34;;;16.98;64.09
74627;BME280;63132;52.268;5.192;2023-05-10T10:46:09;101094.09;;;17.31;64.85
74627;BME280;63132;52.268;5.192;2023-05-10T10:48:33;101091.88;;;17.18;67.23
74627;BME280;63132;52.268;5.192;2023-05-10T10:50:58;101084.72;;;17.35;66.96
74627;BME280;63132;52.268;5.192;2023-05-10T10:53:25;101095.06;;;17.56;67.18
74627;BME280;63132;52.268;5.192;2023-05-10T10:55:51;101095.88;;;17.48;63.46
74627;BME280;63132;52.268;5.192;2023-05-10T10:58:30;101097.00;;;17.89;62.45
74627;BME280;63132;52.268;5.192;2023-05-10T11:01:10;101093.59;;;18.30;60.23
74627;BME280;63132;52.268;5.192;2023-05-10T11:03:35;101099.03;;;17.87;61.13
74627;BME280;63132;52.268;5.192;2023-05-10T11:06:00;101096.19;;;17.97;60.75
74627;BME280;63132;52.268;5.192;2023-05-10T11:08:30;101087.00;;;18.25;61.31
74627;BME280;63132;52.268;5.192;2023-05-10T11:13:33;101094.47;;;17.87;62.95
74627;BME280;63132;52.268;5.192;2023-05-10T11:15:59;101096.34;;;17.44;64.57
74627;BME280;63132;52.268;5.192;2023-05-10T11:18:36;101109.59;;;17.37;63.75
74627;BME280;63132;52.268;5.192;2023-05-10T11:21:01;101108.56;;;17.03;64.22
74627;BME280;63132;52.268;5.192;2023-05-10T11:24:13;101112.84;;;16.32;67.07
74627;BME280;63132;52.268;5.192;2023-05-10T11:26:21;101112.09;;;16.59;66.97
74627;BME280;63132;52.268;5.192;2023-05-10T11:28:50;101114.78;;;16.40;68.81
74627;BME280;63132;52.268;5.192;2023-05-10T11:31:19;101113.03;;;16.49;69.32
74627;BME280;63132;52.268;5.192;2023-05-10T11:33:45;101120.88;;;16.87;67.27
74627;BME280;63132;52.268;5.192;2023-05-10T11:36:11;101121.16;;;17.29;66.28
74627;BME280;63132;52.268;5.192;2023-05-10T11:38:36;101123.41;;;17.85;66.22
74627;BME280;63132;52.268;5.192;2023-05-10T11:41:01;101120.88;;;17.41;65.65
74627;BME280;63132;52.268;5.192;2023-05-10T11:43:27;101116.59;;;17.65;65.41
74627;BME280;63132;52.268;5.192;2023-05-10T11:45:55;101114.66;;;17.83;64.85
74627;BME280;63132;52.268;5.192;2023-05-10T11:48:20;101113.09;;;17.72;62.91
74627;BME280;63132;52.268;5.192;2023-05-10T11:50:48;101121.03;;;17.39;64.10
74627;BME280;63132;52.268;5.192;2023-05-10T11:53:14;101123.75;;;17.39;65.76
74627;BME280;63132;52.268;5.192;2023-05-10T11:55:39;101135.00;;;17.43;64.22
74627;BME280;63132;52.268;5.192;2023-05-10T11:58:04;101120.81;;;17.67;63.67
74627;BME280;63132;52.268;5.192;2023-05-10T12:00:30;101126.72;;;17.71;65.33
74627;BME280;63132;52.268;5.192;2023-05-10T12:02:55;101132.88;;;17.55;63.99
74627;BME280;63132;52.268;5.192;2023-05-10T12:05:21;101128.34;;;17.02;65.40
74627;BME280;63132;52.268;5.192;2023-05-10T12:07:46;101137.56;;;17.18;65.09
74627;BME280;63132;52.268;5.192;2023-05-10T12:10:12;101133.44;;;17.32;64.62
74627;BME280;63132;52.268;5.192;2023-05-10T12:12:44;101135.53;;;17.46;64.90
74627;BME280;63132;52.268;5.192;2023-05-10T12:15:19;101130.72;;;17.67;64.81
74627;BME280;63132;52.268;5.192;2023-05-10T12:17:45;101133.47;;;17.75;62.47
74627;BME280;63132;52.268;5.192;2023-05-10T12:22:40;101145.66;;;17.53;63.02
74627;BME280;63132;52.268;5.192;2023-05-10T12:25:05;101137.31;;;17.11;65.04
74627;BME280;63132;52.268;5.192;2023-05-10T12:27:31;101133.09;;;17.08;65.17
74627;BME280;63132;52.268;5.192;2023-05-10T12:29:58;101138.94;;;17.03;65.64
74627;BME280;63132;52.268;5.192;2023-05-10T12:32:36;101139.00;;;16.85;66.66
74627;BME280;63132;52.268;5.192;2023-05-10T12:35:03;101133.50;;;16.68;67.86
74627;BME280;63132;52.268;5.192;2023-05-10T12:37:28;101133.47;;;16.87;66.76
74627;BME280;63132;52.268;5.192;2023-05-10T12:39:54;101140.00;;;16.66;68.17
74627;BME280;63132;52.268;5.192;2023-05-10T12:42:19;101147.56;;;16.89;66.50
74627;BME280;63132;52.268;5.192;2023-05-10T12:44:44;101139.13;;;17.28;65.44
74627;BME280;63132;52.268;5.192;2023-05-10T12:47:09;101140.50;;;17.68;64.40
74627;BME280;63132;52.268;5.192;2023-05-10T12:49:35;101138.34;;;17.71;64.09
74627;BME280;63132;52.268;5.192;2023-05-10T12:52:01;101138.47;;;18.13;61.43
74627;BME280;63132;52.268;5.192;2023-05-10T12:54:26;101145.06;;;18.27;61.67
74627;BME280;63132;52.268;5.192;2023-05-10T12:56:51;101141.19;;;17.70;63.49
74627;BME280;63132;52.268;5.192;2023-05-10T12:59:16;101144.88;;;17.69;63.84
74627;BME280;63132;52.268;5.192;2023-05-10T13:01:41;101146.00;;;18.01;64.87
74627;BME280;63132;52.268;5.192;2023-05-10T13:04:07;101153.09;;;17.67;63.66
74627;BME280;63132;52.268;5.192;2023-05-10T13:06:32;101151.81;;;16.73;66.06
74627;BME280;63132;52.268;5.192;2023-05-10T13:08:57;101158.66;;;16.31;68.67
74627;BME280;63132;52.268;5.192;2023-05-10T13:11:22;101151.59;;;16.30;68.50
74627;BME280;63132;52.268;5.192;2023-05-10T13:13:48;101166.59;;;16.04;70.63
74627;BME280;63132;52.268;5.192;2023-05-10T13:16:13;101167.19;;;15.98;71.62
74627;BME280;63132;52.268;5.192;2023-05-10T13:18:38;101168.84;;;15.99;71.67